createdAt,value
2024-01-10T00:00:18.891Z,-4.86
2024-01-10T00:02:45.314Z,-4.86
2024-01-10T00:05:11.698Z,-4.88
2024-01-10T00:07:38.155Z,-4.84
2024-01-10T00:10:05.487Z,-4.83
2024-01-10T00:12:35.995Z,-4.87
2024-01-10T00:15:05.717Z,-4.90
2024-01-10T00:17:32.600Z,-4.90
2024-01-10T00:19:59.108Z,-4.91
2024-01-10T00:22:25.557Z,-4.96
2024-01-10T00:24:51.958Z,-4.97
2024-01-10T00:27:18.316Z,-4.96
2024-01-10T00:29:44.643Z,-4.99
2024-01-10T00:32:11.058Z,-5.01
2024-01-10T00:34:37.545Z,-5.02
2024-01-10T00:37:04.023Z,-5.07
2024-01-10T00:39:30.374Z,-5.05
2024-01-10T00:41:56.782Z,-5.03
2024-01-10T00:44:23.300Z,-5.02
2024-01-10T00:46:49.698Z,-5.04
2024-01-10T00:49:16.214Z,-5.10
2024-01-10T00:51:42.601Z,-5.13
2024-01-10T00:54:09.018Z,-5.15
2024-01-10T00:56:35.359Z,-5.14
2024-01-10T00:59:02.807Z,-5.13
2024-01-10T01:01:29.265Z,-5.14
2024-01-10T01:03:55.608Z,-5.16
2024-01-10T01:06:22.062Z,-5.15
2024-01-10T01:08:48.495Z,-5.15
2024-01-10T01:11:15.690Z,-5.15
2024-01-10T01:13:42.153Z,-5.19
2024-01-10T01:16:08.796Z,-5.16
2024-01-10T01:18:35.588Z,-5.17
2024-01-10T01:21:02.295Z,-5.18
2024-01-10T01:23:36.169Z,-5.22
2024-01-10T01:26:08.178Z,-5.20
2024-01-10T01:28:34.839Z,-5.19
2024-01-10T01:31:01.325Z,-5.20
2024-01-10T01:33:27.974Z,-5.22
2024-01-10T01:35:55.343Z,-5.21
2024-01-10T01:38:21.792Z,-5.29
2024-01-10T01:40:48.392Z,-5.22
2024-01-10T01:43:25.261Z,-5.29
2024-01-10T01:45:54.937Z,-5.37
2024-01-10T01:48:22.936Z,-5.29
2024-01-10T01:50:57.678Z,-5.31
2024-01-10T01:53:24.892Z,-5.33
2024-01-10T01:55:51.850Z,-5.28
2024-01-10T01:58:19.269Z,-5.32
2024-01-10T02:00:46.688Z,-5.32
2024-01-10T02:03:13.360Z,-5.33
2024-01-10T02:05:39.974Z,-5.34
2024-01-10T02:08:07.178Z,-5.34
2024-01-10T02:10:33.786Z,-5.31
2024-01-10T02:13:00.343Z,-5.27
2024-01-10T02:15:26.961Z,-5.31
2024-01-10T02:17:53.474Z,-5.36
2024-01-10T02:20:21.798Z,-5.41
2024-01-10T02:22:48.436Z,-5.39
2024-01-10T02:25:14.935Z,-5.42
2024-01-10T02:27:42.246Z,-5.42
2024-01-10T02:30:10.005Z,-5.42
2024-01-10T02:32:37.551Z,-5.42
2024-01-10T02:35:08.322Z,-5.41
2024-01-10T02:37:35.084Z,-5.47
2024-01-10T02:40:01.623Z,-5.41
2024-01-10T02:42:29.771Z,-5.38
2024-01-10T02:44:56.057Z,-5.37
2024-01-10T02:47:22.577Z,-5.40
2024-01-10T02:49:49.227Z,-5.39
2024-01-10T02:52:15.726Z,-5.39
2024-01-10T02:54:42.300Z,-5.41
2024-01-10T02:57:08.706Z,-5.39
2024-01-10T02:59:35.033Z,-5.38
2024-01-10T03:02:01.409Z,-5.36
2024-01-10T03:04:27.777Z,-5.38
2024-01-10T03:06:54.116Z,-5.35
2024-01-10T03:09:20.595Z,-5.35
2024-01-10T03:11:46.963Z,-5.38
2024-01-10T03:14:13.425Z,-5.38
2024-01-10T03:16:40.098Z,-5.42
2024-01-10T03:19:06.751Z,-5.33
2024-01-10T03:21:33.363Z,-5.29
2024-01-10T03:24:01.550Z,-5.29
2024-01-10T03:26:29.029Z,-5.32
2024-01-10T03:28:55.537Z,-5.30
2024-01-10T03:31:21.909Z,-5.31
2024-01-10T03:33:48.470Z,-5.40
2024-01-10T03:36:17.438Z,-5.30
2024-01-10T03:38:44.761Z,-5.31
2024-01-10T03:41:15.425Z,-5.29
2024-01-10T03:43:42.130Z,-5.30
2024-01-10T03:46:09.069Z,-5.32
2024-01-10T03:48:35.639Z,-5.29
2024-01-10T03:51:02.074Z,-5.30
2024-01-10T03:53:28.419Z,-5.32
2024-01-10T03:55:54.982Z,-5.35
2024-01-10T03:58:21.571Z,-5.34
2024-01-10T04:00:47.945Z,-5.38
2024-01-10T04:03:14.363Z,-5.36
2024-01-10T04:05:42.457Z,-5.32
2024-01-10T04:08:08.944Z,-5.31
2024-01-10T04:10:35.347Z,-5.33
2024-01-10T04:13:01.702Z,-5.33
2024-01-10T04:15:28.125Z,-5.36
2024-01-10T04:17:54.706Z,-5.37
2024-01-10T04:20:21.322Z,-5.37
2024-01-10T04:22:48.221Z,-5.41
2024-01-10T04:25:14.627Z,-5.38
2024-01-10T04:27:41.007Z,-5.39
2024-01-10T04:30:08.054Z,-5.40
2024-01-10T04:32:34.592Z,-5.46
2024-01-10T04:35:01.182Z,-5.48
2024-01-10T04:37:27.657Z,-5.48
2024-01-10T04:39:54.028Z,-5.55
2024-01-10T04:42:20.848Z,-5.60
2024-01-10T04:44:47.319Z,-5.60
2024-01-10T04:47:13.861Z,-5.63
2024-01-10T04:49:40.311Z,-5.61
2024-01-10T04:52:06.870Z,-5.64
2024-01-10T04:54:33.506Z,-5.67
2024-01-10T04:56:59.887Z,-5.70
2024-01-10T04:59:26.290Z,-5.68
2024-01-10T05:01:53.032Z,-5.68
2024-01-10T05:04:19.486Z,-5.64
2024-01-10T05:06:45.864Z,-5.63
2024-01-10T05:09:12.541Z,-5.62
2024-01-10T05:11:40.407Z,-5.58
2024-01-10T05:14:08.438Z,-5.59
2024-01-10T05:16:34.848Z,-5.58
2024-01-10T05:19:04.630Z,-5.63
2024-01-10T05:21:32.407Z,-5.66
2024-01-10T05:23:58.848Z,-5.68
2024-01-10T05:26:25.292Z,-5.70
2024-01-10T05:28:51.712Z,-5.72
2024-01-10T05:31:18.136Z,-5.73
2024-01-10T05:33:47.723Z,-5.73
2024-01-10T05:36:14.156Z,-5.74
2024-01-10T05:38:43.212Z,-5.75
2024-01-10T05:41:10.151Z,-5.75
2024-01-10T05:43:36.728Z,-5.77
2024-01-10T05:46:03.403Z,-5.78
2024-01-10T05:48:29.892Z,-5.73
2024-01-10T05:50:56.367Z,-5.73
2024-01-10T05:53:25.790Z,-5.74
2024-01-10T05:55:52.279Z,-5.74
2024-01-10T05:58:18.669Z,-5.72
2024-01-10T06:00:45.032Z,-5.70
2024-01-10T06:03:11.473Z,-5.73
2024-01-10T06:05:37.930Z,-5.71
2024-01-10T06:08:05.402Z,-5.68
2024-01-10T06:10:34.425Z,-5.69
2024-01-10T06:13:02.240Z,-5.72
2024-01-10T06:15:29.339Z,-5.77
2024-01-10T06:17:55.774Z,-5.74
2024-01-10T06:20:22.318Z,-5.77
2024-01-10T06:22:48.801Z,-5.80
2024-01-10T06:25:15.367Z,-5.79
2024-01-10T06:27:41.841Z,-5.79
2024-01-10T06:30:08.986Z,-5.77
2024-01-10T06:32:36.232Z,-5.77
2024-01-10T06:35:02.921Z,-5.71
2024-01-10T06:37:29.645Z,-5.69
2024-01-10T06:39:56.056Z,-5.73
2024-01-10T06:42:22.463Z,-5.77
2024-01-10T06:44:48.953Z,-5.77
2024-01-10T06:47:15.877Z,-5.80
2024-01-10T06:49:43.639Z,-5.78
2024-01-10T06:52:10.139Z,-5.78
2024-01-10T06:54:36.538Z,-5.79
2024-01-10T06:57:03.056Z,-5.79
2024-01-10T06:59:29.431Z,-5.79
2024-01-10T07:01:58.827Z,-5.74
2024-01-10T07:04:25.740Z,-5.77
2024-01-10T07:06:52.915Z,-5.76
2024-01-10T07:09:20.829Z,-5.76
2024-01-10T07:11:48.719Z,-5.76
2024-01-10T07:14:16.265Z,-5.74
2024-01-10T07:16:43.764Z,-5.75
2024-01-10T07:19:14.346Z,-5.79
2024-01-10T07:21:42.033Z,-5.87
2024-01-10T07:24:11.487Z,-5.80
2024-01-10T07:26:38.842Z,-5.83
2024-01-10T07:29:05.493Z,-5.79
2024-01-10T07:31:32.653Z,-5.77
2024-01-10T07:33:59.115Z,-5.72
2024-01-10T07:36:28.659Z,-5.70
2024-01-10T07:38:55.004Z,-5.66
2024-01-10T07:41:21.522Z,-5.59
2024-01-10T07:43:48.026Z,-5.62
2024-01-10T07:46:14.399Z,-5.63
2024-01-10T07:48:40.837Z,-5.54
2024-01-10T07:51:07.916Z,-5.57
2024-01-10T07:53:34.913Z,-5.54
2024-01-10T07:56:01.360Z,-5.50
2024-01-10T07:58:28.335Z,-5.43
2024-01-10T08:00:55.395Z,-5.45
2024-01-10T08:03:22.012Z,-5.43
2024-01-10T08:05:48.542Z,-5.36
2024-01-10T08:08:15.052Z,-5.30
2024-01-10T08:10:41.464Z,-5.20
2024-01-10T08:13:07.918Z,-5.16
2024-01-10T08:15:35.670Z,-5.02
2024-01-10T08:18:05.262Z,-4.83
2024-01-10T08:20:31.880Z,-4.76
2024-01-10T08:22:58.630Z,-4.76
2024-01-10T08:25:25.236Z,-4.75
2024-01-10T08:27:53.217Z,-4.73
2024-01-10T08:30:19.914Z,-4.66
2024-01-10T08:32:46.407Z,-4.61
2024-01-10T08:35:12.981Z,-4.60
2024-01-10T08:37:41.979Z,-4.48
2024-01-10T08:40:13.275Z,-4.38
2024-01-10T08:42:39.841Z,-4.28
2024-01-10T08:45:06.617Z,-4.18
2024-01-10T08:47:33.759Z,-4.07
2024-01-10T08:50:00.657Z,-4.01
2024-01-10T08:52:27.112Z,-3.90
2024-01-10T08:54:53.455Z,-3.90
2024-01-10T08:57:19.839Z,-3.88
2024-01-10T08:59:46.594Z,-3.86
2024-01-10T09:02:13.079Z,-3.90
2024-01-10T09:04:40.333Z,-3.87
2024-01-10T09:07:08.322Z,-3.85
2024-01-10T09:09:34.761Z,-3.82
2024-01-10T09:12:01.198Z,-3.72
2024-01-10T09:14:27.602Z,-3.66
2024-01-10T09:16:54.050Z,-3.64
2024-01-10T09:19:20.559Z,-3.60
2024-01-10T09:21:47.004Z,-3.57
2024-01-10T09:24:22.260Z,-3.56
2024-01-10T09:26:55.441Z,-3.49
2024-01-10T09:29:22.460Z,-3.38
2024-01-10T09:31:48.988Z,-3.30
2024-01-10T09:34:15.549Z,-3.23
2024-01-10T09:36:42.370Z,-3.14
2024-01-10T09:39:14.275Z,-3.09
2024-01-10T09:41:51.737Z,-3.03
2024-01-10T09:44:19.278Z,-3.04
2024-01-10T09:46:53.897Z,-3.02
2024-01-10T09:49:22.699Z,-2.98
2024-01-10T09:51:50.514Z,-3.01
2024-01-10T09:54:17.392Z,-3.04
2024-01-10T09:56:43.922Z,-3.01
2024-01-10T09:59:12.019Z,-2.94
2024-01-10T10:01:42.153Z,-2.92
2024-01-10T10:04:12.387Z,-2.87
2024-01-10T10:06:39.118Z,-2.87
2024-01-10T10:09:08.252Z,-2.84
2024-01-10T10:11:34.649Z,-2.80
2024-01-10T10:14:17.414Z,-2.76
2024-01-10T10:16:44.493Z,-2.74
2024-01-10T10:19:13.433Z,-2.75
2024-01-10T10:21:40.704Z,-2.70
2024-01-10T10:24:08.313Z,-2.65
2024-01-10T10:26:35.882Z,-2.57
2024-01-10T10:29:03.900Z,-2.52
2024-01-10T10:31:32.188Z,-2.51
2024-01-10T10:34:00.928Z,-2.43
2024-01-10T10:36:27.931Z,-2.39
2024-01-10T10:38:54.366Z,-2.37
2024-01-10T10:41:20.848Z,-2.38
2024-01-10T10:43:49.090Z,-2.31
2024-01-10T10:46:16.089Z,-2.28
2024-01-10T10:48:43.875Z,-2.20
2024-01-10T10:51:14.720Z,-2.10
2024-01-10T10:53:46.190Z,-2.08
2024-01-10T10:56:13.760Z,-1.99
2024-01-10T10:58:41.726Z,-1.91
2024-01-10T11:01:10.095Z,-1.80
2024-01-10T11:03:38.917Z,-1.71
2024-01-10T11:06:06.769Z,-1.62
2024-01-10T11:08:53.524Z,-1.53
2024-01-10T11:11:47.521Z,-1.54
2024-01-10T11:14:45.952Z,-1.51
2024-01-10T11:17:31.081Z,-1.44
2024-01-10T11:20:14.548Z,-1.38
2024-01-10T11:23:08.837Z,-1.42
2024-01-10T11:25:37.872Z,-1.47
2024-01-10T11:28:05.739Z,-1.40
2024-01-10T11:30:36.708Z,-1.33
2024-01-10T11:33:20.098Z,-1.26
2024-01-10T11:36:11.836Z,-1.13
2024-01-10T11:38:55.044Z,-1.04
2024-01-10T11:41:27.646Z,-1.03
2024-01-10T11:44:09.486Z,-1.00
2024-01-10T11:46:39.831Z,-0.99
2024-01-10T11:49:14.687Z,-0.88
2024-01-10T11:51:47.542Z,-0.79
2024-01-10T11:54:43.638Z,-0.72
2024-01-10T11:57:13.939Z,-0.71
2024-01-10T11:59:44.252Z,-0.72
2024-01-10T12:02:11.426Z,-0.62
2024-01-10T12:04:45.301Z,-0.54
2024-01-10T12:07:14.356Z,-0.46
2024-01-10T12:09:41.036Z,-0.41
2024-01-10T12:12:07.577Z,-0.25
2024-01-10T12:14:35.256Z,-0.21
2024-01-10T12:17:02.070Z,-0.20
2024-01-10T12:19:28.790Z,-0.18
2024-01-10T12:21:55.208Z,-0.18
2024-01-10T12:24:22.217Z,-0.15
2024-01-10T12:26:49.571Z,-0.16
2024-01-10T12:29:19.348Z,-0.14
2024-01-10T12:31:46.863Z,-0.17
2024-01-10T12:34:13.544Z,-0.19
2024-01-10T12:36:39.991Z,-0.30
2024-01-10T12:39:08.054Z,-0.45
2024-01-10T12:41:35.606Z,-0.48
2024-01-10T12:44:06.028Z,-0.55
2024-01-10T12:46:32.631Z,-0.61
2024-01-10T12:49:08.547Z,-0.58
2024-01-10T12:51:38.687Z,-0.62
2024-01-10T12:54:05.224Z,-0.61
2024-01-10T12:56:31.810Z,-0.60
2024-01-10T12:58:59.278Z,-0.58
2024-01-10T13:01:26.180Z,-0.60
2024-01-10T13:03:53.740Z,-0.56
2024-01-10T13:06:23.146Z,-0.52
2024-01-10T13:08:49.962Z,-0.48
2024-01-10T13:11:16.610Z,-0.45
2024-01-10T13:13:44.281Z,-0.46
2024-01-10T13:16:14.020Z,-0.47
2024-01-10T13:18:40.937Z,-0.47
2024-01-10T13:21:07.536Z,-0.46
2024-01-10T13:23:35.009Z,-0.42
2024-01-10T13:26:01.730Z,-0.42
2024-01-10T13:28:31.717Z,-0.42
2024-01-10T13:30:58.338Z,-0.40
2024-01-10T13:33:32.354Z,-0.36
2024-01-10T13:36:00.100Z,-0.34
2024-01-10T13:38:27.281Z,-0.33
2024-01-10T13:40:53.808Z,-0.35
2024-01-10T13:43:20.119Z,-0.34
2024-01-10T13:45:46.476Z,-0.36
2024-01-10T13:48:12.884Z,-0.32
2024-01-10T13:50:40.526Z,-0.32
2024-01-10T13:53:07.026Z,-0.34
2024-01-10T13:55:33.497Z,-0.32
2024-01-10T13:57:59.915Z,-0.31
2024-01-10T14:00:26.677Z,-0.32
2024-01-10T14:02:59.681Z,-0.30
2024-01-10T14:05:29.507Z,-0.30
2024-01-10T14:07:58.091Z,-0.29
2024-01-10T14:10:25.030Z,-0.21
2024-01-10T14:12:51.547Z,-0.20
2024-01-10T14:15:18.713Z,-0.23
2024-01-10T14:17:45.233Z,-0.19
2024-01-10T14:20:13.739Z,-0.16
2024-01-10T14:22:40.941Z,-0.16
2024-01-10T14:25:07.891Z,-0.17
2024-01-10T14:27:34.336Z,-0.17
2024-01-10T14:30:00.930Z,-0.19
2024-01-10T14:32:27.750Z,-0.20
2024-01-10T14:34:54.689Z,-0.16
2024-01-10T14:37:22.162Z,-0.15
2024-01-10T14:39:48.608Z,-0.15
2024-01-10T14:42:15.178Z,-0.16
2024-01-10T14:44:41.651Z,-0.17
2024-01-10T14:47:11.409Z,-0.14
2024-01-10T14:49:39.354Z,-0.14
2024-01-10T14:52:06.491Z,-0.14
2024-01-10T14:54:32.884Z,-0.16
2024-01-10T14:56:59.243Z,-0.15
2024-01-10T14:59:36.719Z,-0.16
2024-01-10T15:02:10.206Z,-0.20
2024-01-10T15:04:42.476Z,-0.20
2024-01-10T15:07:09.249Z,-0.19
2024-01-10T15:09:38.992Z,-0.19
2024-01-10T15:12:09.494Z,-0.26
2024-01-10T15:14:37.027Z,-0.26
2024-01-10T15:17:07.075Z,-0.31
2024-01-10T15:19:33.874Z,-0.33
2024-01-10T15:22:00.567Z,-0.36
2024-01-10T15:24:28.244Z,-0.39
2024-01-10T15:26:55.129Z,-0.42
2024-01-10T15:29:21.553Z,-0.49
2024-01-10T15:31:48.178Z,-0.53
2024-01-10T15:34:14.621Z,-0.60
2024-01-10T15:36:43.261Z,-0.61
2024-01-10T15:39:09.676Z,-0.64
2024-01-10T15:41:36.170Z,-0.67
2024-01-10T15:44:02.528Z,-0.69
2024-01-10T15:46:29.071Z,-0.73
2024-01-10T15:48:55.660Z,-0.78
2024-01-10T15:51:22.111Z,-0.83
2024-01-10T15:53:51.231Z,-0.91
2024-01-10T15:56:18.980Z,-0.96
2024-01-10T15:58:45.377Z,-1.01
2024-01-10T16:01:11.788Z,-1.02
2024-01-10T16:03:38.183Z,-1.04
2024-01-10T16:06:05.191Z,-1.08
2024-01-10T16:08:31.732Z,-1.11
2024-01-10T16:10:58.216Z,-1.13
2024-01-10T16:13:24.704Z,-1.14
2024-01-10T16:15:56.004Z,-1.18
2024-01-10T16:18:25.598Z,-1.24
2024-01-10T16:20:52.924Z,-1.26
2024-01-10T16:23:19.316Z,-1.29
2024-01-10T16:25:45.757Z,-1.32
2024-01-10T16:28:12.168Z,-1.37
2024-01-10T16:30:38.521Z,-1.40
2024-01-10T16:33:05.086Z,-1.46
2024-01-10T16:35:31.707Z,-1.44
2024-01-10T16:37:58.156Z,-1.45
2024-01-10T16:40:24.555Z,-1.48
2024-01-10T16:42:50.987Z,-1.53
2024-01-10T16:45:17.803Z,-1.53
2024-01-10T16:47:44.380Z,-1.57
2024-01-10T16:50:10.850Z,-1.62
2024-01-10T16:52:39.523Z,-1.65
2024-01-10T16:55:06.408Z,-1.65
2024-01-10T16:57:32.862Z,-1.62
2024-01-10T16:59:59.216Z,-1.52
2024-01-10T17:02:25.613Z,-1.34
2024-01-10T17:04:52.089Z,-1.29
2024-01-10T17:07:18.577Z,-1.26
2024-01-10T17:09:45.680Z,-1.21
2024-01-10T17:12:12.019Z,-1.32
2024-01-10T17:14:38.372Z,-1.23
2024-01-10T17:17:07.715Z,-1.26
2024-01-10T17:19:34.067Z,-1.40
2024-01-10T17:22:00.463Z,-1.52
2024-01-10T17:24:26.826Z,-1.65
2024-01-10T17:26:53.359Z,-1.75
2024-01-10T17:29:19.756Z,-1.84
2024-01-10T17:31:46.220Z,-1.90
2024-01-10T17:34:12.645Z,-1.93
2024-01-10T17:36:39.127Z,-1.99
2024-01-10T17:39:05.903Z,-2.01
2024-01-10T17:41:32.526Z,-2.04
2024-01-10T17:43:59.931Z,-2.05
2024-01-10T17:46:26.401Z,-2.08
2024-01-10T17:48:53.298Z,-2.11
2024-01-10T17:51:22.672Z,-2.13
2024-01-10T17:53:52.635Z,-2.17
2024-01-10T17:56:19.055Z,-2.18
2024-01-10T17:58:45.488Z,-2.23
2024-01-10T18:01:12.043Z,-2.27
2024-01-10T18:03:39.001Z,-2.29
2024-01-10T18:06:06.026Z,-2.31
2024-01-10T18:08:32.608Z,-2.34
2024-01-10T18:10:59.371Z,-2.35
2024-01-10T18:13:25.807Z,-2.42
2024-01-10T18:15:52.251Z,-2.41
2024-01-10T18:18:18.677Z,-2.43
2024-01-10T18:20:45.176Z,-2.45
2024-01-10T18:23:12.385Z,-2.46
2024-01-10T18:25:40.423Z,-2.49
2024-01-10T18:28:07.081Z,-2.51
2024-01-10T18:30:33.467Z,-2.58
2024-01-10T18:33:02.298Z,-2.55
2024-01-10T18:35:28.908Z,-2.60
2024-01-10T18:37:55.502Z,-2.66
2024-01-10T18:40:21.914Z,-2.64
2024-01-10T18:42:48.249Z,-2.66
2024-01-10T18:45:14.664Z,-2.68
2024-01-10T18:47:41.158Z,-2.68
2024-01-10T18:50:08.166Z,-2.71
2024-01-10T18:52:34.594Z,-2.75
2024-01-10T18:55:00.970Z,-2.77
2024-01-10T18:57:27.320Z,-2.80
2024-01-10T18:59:53.682Z,-2.81
2024-01-10T19:02:20.148Z,-2.83
2024-01-10T19:04:46.612Z,-2.87
2024-01-10T19:07:12.951Z,-2.89
2024-01-10T19:09:39.324Z,-2.93
2024-01-10T19:12:06.103Z,-2.94
2024-01-10T19:14:36.133Z,-2.94
2024-01-10T19:17:02.843Z,-2.93
2024-01-10T19:19:29.351Z,-2.93
2024-01-10T19:21:55.854Z,-2.95
2024-01-10T19:24:23.897Z,-2.96
2024-01-10T19:26:50.243Z,-2.97
2024-01-10T19:29:16.629Z,-2.98
2024-01-10T19:31:43.061Z,-3.00
2024-01-10T19:34:10.997Z,-3.01
2024-01-10T19:36:37.609Z,-3.04
2024-01-10T19:39:05.173Z,-3.04
2024-01-10T19:41:31.879Z,-3.07
2024-01-10T19:43:58.307Z,-3.09
2024-01-10T19:46:24.649Z,-3.09
2024-01-10T19:48:51.601Z,-3.11
2024-01-10T19:51:18.132Z,-3.16
2024-01-10T19:53:49.338Z,-3.18
2024-01-10T19:56:19.268Z,-3.21
2024-01-10T19:58:46.078Z,-3.22
2024-01-10T20:01:13.194Z,-3.24
2024-01-10T20:03:39.787Z,-3.30
2024-01-10T20:06:07.143Z,-3.28
2024-01-10T20:08:33.579Z,-3.27
2024-01-10T20:11:00.133Z,-3.28
2024-01-10T20:13:26.540Z,-3.30
2024-01-10T20:15:52.871Z,-3.29
2024-01-10T20:18:19.381Z,-3.32
2024-01-10T20:20:47.249Z,-3.43
2024-01-10T20:23:13.740Z,-3.35
2024-01-10T20:25:40.726Z,-3.36
2024-01-10T20:28:09.318Z,-3.38
2024-01-10T20:30:35.755Z,-3.37
2024-01-10T20:33:02.541Z,-3.37
2024-01-10T20:35:29.317Z,-3.40
2024-01-10T20:37:57.978Z,-3.44
2024-01-10T20:40:24.421Z,-3.46
2024-01-10T20:42:50.782Z,-3.51
2024-01-10T20:45:20.051Z,-3.51
2024-01-10T20:47:47.070Z,-3.55
2024-01-10T20:50:13.673Z,-3.55
2024-01-10T20:52:40.294Z,-3.57
2024-01-10T20:55:06.876Z,-3.63
2024-01-10T20:57:33.717Z,-3.69
2024-01-10T21:00:04.401Z,-3.76
2024-01-10T21:02:31.878Z,-3.71
2024-01-10T21:04:58.493Z,-3.73
2024-01-10T21:07:25.012Z,-3.75
2024-01-10T21:09:51.594Z,-3.80
2024-01-10T21:12:18.148Z,-3.80
2024-01-10T21:14:46.379Z,-3.83
2024-01-10T21:17:14.120Z,-3.86
2024-01-10T21:19:40.808Z,-3.87
2024-01-10T21:22:07.253Z,-3.89
2024-01-10T21:24:37.860Z,-3.92
2024-01-10T21:27:05.239Z,-3.92
2024-01-10T21:29:31.837Z,-3.91
2024-01-10T21:31:58.403Z,-3.94
2024-01-10T21:34:24.889Z,-3.99
2024-01-10T21:36:51.369Z,-3.97
2024-01-10T21:39:17.721Z,-3.98
2024-01-10T21:41:44.343Z,-3.99
2024-01-10T21:44:10.919Z,-4.05
2024-01-10T21:46:37.308Z,-4.06
2024-01-10T21:49:03.772Z,-4.07
2024-01-10T21:51:30.463Z,-4.16
2024-01-10T21:53:56.886Z,-4.20
2024-01-10T21:56:23.303Z,-4.31
2024-01-10T21:58:50.020Z,-4.29
2024-01-10T22:01:16.526Z,-4.29
2024-01-10T22:03:43.802Z,-4.32
2024-01-10T22:06:10.402Z,-4.32
2024-01-10T22:08:38.752Z,-4.30
2024-01-10T22:11:05.345Z,-4.33
2024-01-10T22:13:31.775Z,-4.33
2024-01-10T22:15:58.166Z,-4.40
2024-01-10T22:18:24.951Z,-4.36
2024-01-10T22:20:51.372Z,-4.48
2024-01-10T22:23:17.775Z,-4.42
2024-01-10T22:25:44.269Z,-4.39
2024-01-10T22:28:10.773Z,-4.39
2024-01-10T22:30:37.181Z,-4.42
2024-01-10T22:33:03.963Z,-4.47
2024-01-10T22:35:30.696Z,-4.46
2024-01-10T22:37:57.243Z,-4.50
2024-01-10T22:40:23.718Z,-4.48
2024-01-10T22:42:50.116Z,-4.53
2024-01-10T22:45:16.462Z,-4.59
2024-01-10T22:47:42.941Z,-4.59
2024-01-10T22:50:11.421Z,-4.58
2024-01-10T22:52:39.028Z,-4.59
2024-01-10T22:55:06.450Z,-4.58
2024-01-10T22:57:32.831Z,-4.62
2024-01-10T22:59:59.172Z,-4.65
2024-01-10T23:02:25.560Z,-4.62
2024-01-10T23:04:52.045Z,-4.63
2024-01-10T23:07:18.386Z,-4.59
2024-01-10T23:09:44.723Z,-4.49
2024-01-10T23:12:11.097Z,-4.33
2024-01-10T23:14:37.479Z,-4.34
2024-01-10T23:17:05.385Z,-4.24
2024-01-10T23:19:32.907Z,-4.23
2024-01-10T23:21:59.282Z,-4.26
2024-01-10T23:24:25.677Z,-4.28
2024-01-10T23:26:52.674Z,-4.25
2024-01-10T23:29:19.064Z,-4.27
2024-01-10T23:31:50.449Z,-4.25
2024-01-10T23:34:16.910Z,-4.23
2024-01-10T23:36:43.278Z,-4.19
2024-01-10T23:39:09.710Z,-4.17
2024-01-10T23:41:36.391Z,-4.18
2024-01-10T23:44:02.792Z,-4.13
2024-01-10T23:46:29.237Z,-4.11
2024-01-10T23:48:55.723Z,-4.12
2024-01-10T23:51:22.687Z,-4.09
2024-01-10T23:53:49.090Z,-4.06
2024-01-10T23:56:16.870Z,-4.06
2024-01-10T23:58:43.293Z,-4.04
